地図

経路データ

SID SEASON NUMBER BASIN SUBBASIN NAME ISO_TIME NATURE LAT LON WMO_WIND WMO_PRES WMO_AGENCY TRACK_TYPE DIST2LAND LANDFALL IFLAG USA_AGENCY USA_ATCF_ID USA_LAT USA_LON USA_RECORD USA_STATUS USA_WIND USA_PRES USA_SSHS USA_R34_NE USA_R34_SE USA_R34_SW USA_R34_NW USA_R50_NE USA_R50_SE USA_R50_SW USA_R50_NW USA_R64_NE USA_R64_SE USA_R64_SW USA_R64_NW USA_POCI USA_ROCI USA_RMW USA_EYE TOKYO_LAT TOKYO_LON TOKYO_GRADE TOKYO_WIND TOKYO_PRES TOKYO_R50_DIR TOKYO_R50_LONG TOKYO_R50_SHORT TOKYO_R30_DIR TOKYO_R30_LONG TOKYO_R30_SHORT TOKYO_LAND CMA_LAT CMA_LON CMA_CAT CMA_WIND CMA_PRES HKO_LAT HKO_LON HKO_CAT HKO_WIND HKO_PRES NEWDELHI_LAT NEWDELHI_LON NEWDELHI_GRADE NEWDELHI_WIND NEWDELHI_PRES NEWDELHI_CI NEWDELHI_DP NEWDELHI_POCI REUNION_LAT REUNION_LON REUNION_TYPE REUNION_WIND REUNION_PRES REUNION_TNUM REUNION_CI REUNION_RMW REUNION_R34_NE REUNION_R34_SE REUNION_R34_SW REUNION_R34_NW REUNION_R50_NE REUNION_R50_SE REUNION_R50_SW REUNION_R50_NW REUNION_R64_NE REUNION_R64_SE REUNION_R64_SW REUNION_R64_NW BOM_LAT BOM_LON BOM_TYPE BOM_WIND BOM_PRES BOM_TNUM BOM_CI BOM_RMW BOM_R34_NE BOM_R34_SE BOM_R34_SW BOM_R34_NW BOM_R50_NE BOM_R50_SE BOM_R50_SW BOM_R50_NW BOM_R64_NE BOM_R64_SE BOM_R64_SW BOM_R64_NW BOM_ROCI BOM_POCI BOM_EYE BOM_POS_METHOD BOM_PRES_METHOD NADI_LAT NADI_LON NADI_CAT NADI_WIND NADI_PRES WELLINGTON_LAT WELLINGTON_LON WELLINGTON_WIND WELLINGTON_PRES DS824_LAT DS824_LON DS824_STAGE DS824_WIND DS824_PRES TD9636_LAT TD9636_LON TD9636_STAGE TD9636_WIND TD9636_PRES TD9635_LAT TD9635_LON TD9635_WIND TD9635_PRES TD9635_ROCI NEUMANN_LAT NEUMANN_LON NEUMANN_CLASS NEUMANN_WIND NEUMANN_PRES MLC_LAT MLC_LON MLC_CLASS MLC_WIND MLC_PRES USA_GUST BOM_GUST BOM_GUST_PER REUNION_GUST REUNION_GUST_PER USA_SEAHGT USA_SEARAD_NE USA_SEARAD_SE USA_SEARAD_SW USA_SEARAD_NW STORM_SPEED STORM_DIR
1893273N15128 1893 53 WP MM NOT_NAMED 1893-09-29 16:00:00 NR 14.8000 127.500 main 348 278 __________O___ -1 14.8000 127.500 3 29 296
1893273N15128 1893 53 WP MM NOT_NAMED 1893-09-29 18:00:00 NR 15.2131 126.609 main 278 224 __________P___ -1 15.2131 126.609 3 28 295
1893273N15128 1893 53 WP MM NOT_NAMED 1893-09-29 21:00:00 NR 15.7995 125.308 main 228 183 __________P___ -1 15.7995 125.308 3 26 295
1893273N15128 1893 53 WP MM NOT_NAMED 1893-09-30 00:00:00 NR 16.3090 124.112 main 183 67 __________P___ -1 16.3090 124.112 3 23 293
1893273N15128 1893 53 WP MM NOT_NAMED 1893-09-30 03:00:00 NR 16.7017 123.090 main 67 33 __________P___ -1 16.7017 123.090 3 20 291
1893273N15128 1893 53 WP MM NOT_NAMED 1893-09-30 04:00:00 NR 16.8000 122.800 main 33 0 __________O___ -1 16.8000 122.800 4 16 288
1893273N15128 1893 53 WP MM NOT_NAMED 1893-09-30 06:00:00 NR 16.9445 122.305 main 0 0 __________P___ -1 16.9445 122.305 4 13 284
1893273N15128 1893 53 WP MM NOT_NAMED 1893-09-30 09:00:00 NR 17.0627 121.734 main 0 0 __________P___ -1 17.0627 121.734 4 10 280
1893273N15128 1893 53 WP MM NOT_NAMED 1893-09-30 12:00:00 NR 17.1182 121.301 main 0 0 __________P___ -1 17.1182 121.301 4 8 278
1893273N15128 1893 53 WP MM NOT_NAMED 1893-09-30 15:00:00 NR 17.1720 120.926 main 0 0 __________P___ -1 17.1720 120.926 4 7 280
1893273N15128 1893 53 WP MM NOT_NAMED 1893-09-30 16:00:00 NR 17.2000 120.800 main 0 0 __________O___ -1 17.2000 120.800 4 8 287
1893273N15128 1893 53 WP MM NOT_NAMED 1893-09-30 18:00:00 NR 17.2915 120.504 main 0 0 __________P___ -1 17.2915 120.504 4 9 290
1893273N15128 1893 53 WP MM NOT_NAMED 1893-09-30 21:00:00 NR 17.4540 120.072 main 23 33 __________P___ -1 17.4540 120.072 4 9 294
1893273N15128 1893 53 WP MM NOT_NAMED 1893-10-01 00:00:00 NR 17.6551 119.635 main 75 75 __________P___ -1 17.6551 119.635 4 10 298
1893273N15128 1893 53 WP MM NOT_NAMED 1893-10-01 03:00:00 NR 17.9046 119.167 main 121 131 __________P___ -1 17.9046 119.167 4 10 300
1893273N15128 1893 53 WP MM NOT_NAMED 1893-10-01 04:00:00 NR 18.0000 119.000 main 144 144 __________O___ -1 18.0000 119.000 4 12 302
1893273N15128 1893 53 WP MM NOT_NAMED 1893-10-01 06:00:00 NR 18.2176 118.648 main 192 192 __________P___ -1 18.2176 118.648 4 13 304
1893273N15128 1893 53 WP MM NOT_NAMED 1893-10-01 09:00:00 NR 18.5884 118.081 main 258 267 __________P___ -1 18.5884 118.081 4 14 305
1893273N15128 1893 53 WP MM NOT_NAMED 1893-10-01 12:00:00 NR 18.9849 117.472 main 331 341 __________P___ -1 18.9849 117.472 4 14 304
1893273N15128 1893 53 WP MM NOT_NAMED 1893-10-01 15:00:00 NR 19.3761 116.824 main 383 367 __________P___ -1 19.3761 116.824 4 15 302
1893273N15128 1893 53 WP MM NOT_NAMED 1893-10-01 16:00:00 NR 19.5000 116.600 main 367 336 __________O___ -1 19.5000 116.600 4 15 298
1893273N15128 1893 53 WP MM NOT_NAMED 1893-10-01 18:00:00 NR 19.7389 116.109 main 336 266 __________P___ -1 19.7389 116.109 4 16 296
1893273N15128 1893 53 WP MM NOT_NAMED 1893-10-01 21:00:00 NR 20.0785 115.340 main 266 214 __________P___ -1 20.0785 115.340 4 16 294
1893273N15128 1893 53 WP MM NOT_NAMED 1893-10-02 00:00:00 NR 20.3811 114.584 main 214 172 __________P___ -1 20.3811 114.584 4 15 292
1893273N15128 1893 53 WP MM NOT_NAMED 1893-10-02 03:00:00 NR 20.6310 113.901 main 172 152 __________P___ -1 20.6310 113.901 4 13 291
1893273N15128 1893 53 WP MM NOT_NAMED 1893-10-02 04:00:00 NR 20.7000 113.700 main 152 129 __________O___ -1 20.7000 113.700 4 11 289
1893273N15128 1893 53 WP MM NOT_NAMED 1893-10-02 06:00:00 NR 20.8032 113.361 main 129 105 __________P___ -1 20.8032 113.361 4 9 286
1893273N15128 1893 53 WP MM NOT_NAMED 1893-10-02 09:00:00 NR 20.9086 112.942 main 105 84 __________P___ -1 20.9086 112.942 4 7 284
1893273N15128 1893 53 WP MM NOT_NAMED 1893-10-02 12:00:00 NR 20.9849 112.599 main 84 67 __________P___ -1 20.9849 112.599 4 6 285
1893273N15128 1893 53 WP MM NOT_NAMED 1893-10-02 15:00:00 NR 21.0661 112.297 main 67 67 __________P___ -1 21.0661 112.297 4 6 287
1893273N15128 1893 53 WP MM NOT_NAMED 1893-10-02 16:00:00 NR 21.1000 112.200 main 67 49 __________O___ -1 21.1000 112.200 4 6 293
1893273N15128 1893 53 WP MM NOT_NAMED 1893-10-02 18:00:00 NR 21.1833 112.004 main 49 24 __________P___ -1 21.1833 112.004 4 6 298
1893273N15128 1893 53 WP MM NOT_NAMED 1893-10-02 21:00:00 NR 21.3414 111.707 main 24 0 __________P___ -1 21.3414 111.707 4 7 302
1893273N15128 1893 53 WP MM NOT_NAMED 1893-10-03 00:00:00 NR 21.5282 111.405 main 0 0 __________P___ -1 21.5282 111.405 4 7 305
1893273N15128 1893 53 WP MM NOT_NAMED 1893-10-03 03:00:00 NR 21.7310 111.102 main 0 0 __________P___ -1 21.7310 111.102 4 7 306
1893273N15128 1893 53 WP MM NOT_NAMED 1893-10-03 04:00:00 NR 21.8000 111.000 main 0 __________O___ -1 21.8000 111.000 4 7 306

デジタル台風データ・検索

IBTrACS Databaseについて

本データベースは、米国NOAAが公開する1842年以降の世界の熱帯低気圧のベストトラックデータアーカイブInternational Best Track Archive for Climate Stewardship (IBTrACS)を、ウェブで閲覧しやすい形式に変換したものです。

最終更新日:2021-10-21